^^
Saratoga-Weather Station Historical Data
Daily Summary for February 9, 2021 Units:  Both    English   Metric
Daily Weekly Monthly Yearly Custom
  High: Low: Average:
Temperature: 76.3 °F /  24.6 °C 59.5 °F /  15.3 °C 66.4 °F /  19.1 °C
Dew Point: 70.7 °F /  21.5 °C 55.6 °F /  13.1 °C 62.2 °F /  16.8 °C
Humidity: 95% 67% 87%
Wind Speed: 4mph /  6.4km/h - 0.6mph /  0.9km/h
Wind Gust: 8mph /  12.9km/h - -
Wind- - SSW
Pressure: 29.9 in /  1012.5 hPa 29.8 in /  1009.8 hPa -
Precipitation: 0.19 in /  4.8 mm    
Historical Graphs
 
 
Tabular Data for February 9, 2021
Time Temperature Dew Point Pressure Wind Wind Speed Wind Gust Humidity Rainfall Rate (Hourly) solar
00:03 62.4 °F /  16.9 °C 56.8 °F /  13.8 °C 29.9in /  1010.8hPa Calm     82% 0in /  0.0mm 0 W/m2
00:08 62.2 °F /  16.8 °C 56.7 °F /  13.7 °C 29.9in /  1010.8hPa Calm     82% 0in /  0.0mm 0 W/m2
00:13 62.2 °F /  16.8 °C 56.7 °F /  13.7 °C 29.9in /  1010.8hPa Calm     82% 0in /  0.0mm 0 W/m2
00:19 62.2 °F /  16.8 °C 56.7 °F /  13.7 °C 29.9in /  1010.8hPa Calm     82% 0in /  0.0mm 0 W/m2
00:24 62.1 °F /  16.7 °C 56.5 °F /  13.6 °C 29.9in /  1010.8hPa Calm     82% 0in /  0.0mm 0 W/m2
00:29 62.1 °F /  16.7 °C 56.8 °F /  13.8 °C 29.9in /  1010.8hPa Calm     83% 0in /  0.0mm 0 W/m2
00:34 61.9 °F /  16.6 °C 56.7 °F /  13.7 °C 29.9in /  1010.8hPa Calm     83% 0in /  0.0mm 0 W/m2
00:39 61.9 °F /  16.6 °C 57 °F /  13.9 °C 29.9in /  1010.8hPa Calm     84% 0in /  0.0mm 0 W/m2
00:44 61.9 °F /  16.6 °C 57 °F /  13.9 °C 29.9in /  1010.8hPa Calm     84% 0in /  0.0mm 0 W/m2
00:49 61.9 °F /  16.6 °C 57 °F /  13.9 °C 29.9in /  1010.8hPa Calm     84% 0in /  0.0mm 0 W/m2
00:54 61.9 °F /  16.6 °C 57 °F /  13.9 °C 29.9in /  1010.8hPa Calm     84% 0in /  0.0mm 0 W/m2
00:59 61.7 °F /  16.5 °C 56.8 °F /  13.8 °C 29.9in /  1010.8hPa Calm     84% 0in /  0.0mm 0 W/m2
01:04 61.5 °F /  16.4 °C 56.7 °F /  13.7 °C 29.9in /  1010.8hPa Calm     84% 0in /  0.0mm 0 W/m2
01:09 61.3 °F /  16.3 °C 56.5 °F /  13.6 °C 29.9in /  1010.8hPa Calm     84% 0in /  0.0mm 0 W/m2
01:14 61.3 °F /  16.3 °C 56.5 °F /  13.6 °C 29.9in /  1010.8hPa Calm     84% 0in /  0.0mm 0 W/m2
01:19 61.3 °F /  16.3 °C 56.8 °F /  13.8 °C 29.9in /  1010.8hPa Calm     85% 0in /  0.0mm 0 W/m2
01:24 61.3 °F /  16.3 °C 56.8 °F /  13.8 °C 29.9in /  1010.8hPa Calm     85% 0in /  0.0mm 0 W/m2
01:29 61.2 °F /  16.2 °C 56.7 °F /  13.7 °C 29.9in /  1010.8hPa Calm     85% 0in /  0.0mm 0 W/m2
01:34 61.2 °F /  16.2 °C 56.7 °F /  13.7 °C 29.9in /  1010.8hPa Calm     85% 0in /  0.0mm 0 W/m2
01:39 61.2 °F /  16.2 °C 56.7 °F /  13.7 °C 29.9in /  1010.8hPa Calm     85% 0in /  0.0mm 0 W/m2
01:44 61.2 °F /  16.2 °C 56.7 °F /  13.7 °C 29.9in /  1010.8hPa Calm     85% 0in /  0.0mm 0 W/m2
01:49 61.2 °F /  16.2 °C 56.7 °F /  13.7 °C 29.9in /  1010.8hPa Calm     85% 0in /  0.0mm 0 W/m2
01:54 61 °F /  16.1 °C 56.5 °F /  13.6 °C 29.9in /  1010.8hPa Calm     85% 0in /  0.0mm 0 W/m2
01:59 61.2 °F /  16.2 °C 56.7 °F /  13.7 °C 29.9in /  1010.8hPa Calm     85% 0in /  0.0mm 0 W/m2
02:04 61.2 °F /  16.2 °C 56.7 °F /  13.7 °C 29.8in /  1010.5hPa Calm     85% 0in /  0.0mm 0 W/m2
02:09 61.2 °F /  16.2 °C 56.7 °F /  13.7 °C 29.8in /  1010.5hPa Calm     85% 0in /  0.0mm 0 W/m2
02:14 61.2 °F /  16.2 °C 56.7 °F /  13.7 °C 29.8in /  1010.5hPa Calm     85% 0in /  0.0mm 0 W/m2
02:19 61 °F /  16.1 °C 56.5 °F /  13.6 °C 29.8in /  1010.5hPa Calm     85% 0in /  0.0mm 0 W/m2
02:24 61 °F /  16.1 °C 56.5 °F /  13.6 °C 29.8in /  1010.5hPa Calm     85% 0in /  0.0mm 0 W/m2
02:29 61 °F /  16.1 °C 56.5 °F /  13.6 °C 29.8in /  1010.2hPa Calm     85% 0in /  0.0mm 0 W/m2
02:34 61 °F /  16.1 °C 56.5 °F /  13.6 °C 29.8in /  1010.2hPa Calm     85% 0in /  0.0mm 0 W/m2
02:39 61 °F /  16.1 °C 56.5 °F /  13.6 °C 29.8in /  1010.2hPa Calm     85% 0in /  0.0mm 0 W/m2
02:44 60.8 °F /  16 °C 56.7 °F /  13.7 °C 29.8in /  1010.2hPa Calm     86% 0in /  0.0mm 0 W/m2
02:49 60.6 °F /  15.9 °C 56.5 °F /  13.6 °C 29.8in /  1010.2hPa Calm     86% 0in /  0.0mm 0 W/m2
02:55 60.6 °F /  15.9 °C 56.5 °F /  13.6 °C 29.8in /  1010.2hPa Calm     86% 0in /  0.0mm 0 W/m2
03:00 60.4 °F /  15.8 °C 56.3 °F /  13.5 °C 29.8in /  1010.2hPa Calm     86% 0in /  0.0mm 0 W/m2
03:05 60.4 °F /  15.8 °C 56.3 °F /  13.5 °C 29.8in /  1010.2hPa Calm     86% 0in /  0.0mm 0 W/m2
03:10 60.3 °F /  15.7 °C 56.1 °F /  13.4 °C 29.8in /  1010.2hPa Calm     86% 0in /  0.0mm 0 W/m2
03:15 60.3 °F /  15.7 °C 56.1 °F /  13.4 °C 29.8in /  1010.2hPa Calm     86% 0in /  0.0mm 0 W/m2
03:20 60.3 °F /  15.7 °C 56.1 °F /  13.4 °C 29.8in /  1010.2hPa Calm     86% 0in /  0.0mm 0 W/m2
03:25 60.1 °F /  15.6 °C 55.9 °F /  13.3 °C 29.8in /  1010.2hPa Calm     86% 0in /  0.0mm 0 W/m2
03:30 60.1 °F /  15.6 °C 55.9 °F /  13.3 °C 29.8in /  1010.2hPa Calm     86% 0in /  0.0mm 0 W/m2
03:35 60.1 °F /  15.6 °C 55.9 °F /  13.3 °C 29.8in /  1010.2hPa Calm     86% 0in /  0.0mm 0 W/m2
03:40 60.1 °F /  15.6 °C 56.1 °F /  13.4 °C 29.8in /  1010.2hPa Calm     87% 0in /  0.0mm 0 W/m2
03:45 59.9 °F /  15.5 °C 55.9 °F /  13.3 °C 29.8in /  1010.2hPa Calm     87% 0in /  0.0mm 0 W/m2
03:50 59.7 °F /  15.4 °C 55.8 °F /  13.2 °C 29.8in /  1010.2hPa Calm     87% 0in /  0.0mm 0 W/m2
03:55 59.7 °F /  15.4 °C 55.8 °F /  13.2 °C 29.8in /  1010.2hPa Calm     87% 0in /  0.0mm 0 W/m2
04:01 59.7 °F /  15.4 °C 55.8 °F /  13.2 °C 29.8in /  1010.2hPa Calm     87% 0in /  0.0mm 0 W/m2
04:06 59.5 °F /  15.3 °C 55.6 °F /  13.1 °C 29.8in /  1010.2hPa Calm     87% 0in /  0.0mm 0 W/m2
04:11 59.5 °F /  15.3 °C 55.9 °F /  13.3 °C 29.8in /  1010.2hPa Calm     88% 0in /  0.0mm 0 W/m2
04:16 59.5 °F /  15.3 °C 55.9 °F /  13.3 °C 29.8in /  1010.2hPa Calm     88% 0in /  0.0mm 0 W/m2
04:21 59.5 °F /  15.3 °C 55.9 °F /  13.3 °C 29.8in /  1010.2hPa Calm     88% 0in /  0.0mm 0 W/m2
04:26 59.5 °F /  15.3 °C 55.9 °F /  13.3 °C 29.8in /  1010.2hPa Calm     88% 0in /  0.0mm 0 W/m2
04:31 59.5 °F /  15.3 °C 55.9 °F /  13.3 °C 29.8in /  1010.2hPa Calm     88% 0in /  0.0mm 0 W/m2
04:36 59.5 °F /  15.3 °C 55.9 °F /  13.3 °C 29.8in /  1010.2hPa Calm     88% 0in /  0.0mm 0 W/m2
04:41 59.7 °F /  15.4 °C 56.1 °F /  13.4 °C 29.8in /  1010.2hPa Calm     88% 0in /  0.0mm 0 W/m2
04:46 59.7 °F /  15.4 °C 56.1 °F /  13.4 °C 29.8in /  1010.2hPa Calm     88% 0in /  0.0mm 0 W/m2
04:51 59.9 °F /  15.5 °C 56.3 °F /  13.5 °C 29.8in /  1010.2hPa Calm     88% 0in /  0.0mm 0 W/m2
04:56 60.1 °F /  15.6 °C 56.5 °F /  13.6 °C 29.8in /  1010.2hPa Calm     88% 0in /  0.0mm 0 W/m2
05:01 60.4 °F /  15.8 °C 56.8 °F /  13.8 °C 29.8in /  1010.2hPa Calm     88% 0in /  0.0mm 0 W/m2
05:06 60.6 °F /  15.9 °C 57 °F /  13.9 °C 29.8in /  1010.2hPa Calm     88% 0in /  0.0mm 0 W/m2
05:11 60.8 °F /  16 °C 57.2 °F /  14 °C 29.8in /  1010.2hPa Calm     88% 0in /  0.0mm 0 W/m2
05:16 61 °F /  16.1 °C 57 °F /  13.9 °C 29.8in /  1010.2hPa Calm     87% 0in /  0.0mm 0 W/m2
05:21 61.2 °F /  16.2 °C 57.2 °F /  14 °C 29.8in /  1010.2hPa Calm     87% 0in /  0.0mm 0 W/m2
05:26 61.2 °F /  16.2 °C 57.2 °F /  14 °C 29.8in /  1010.2hPa Calm     87% 0in /  0.0mm 0 W/m2
05:31 61.2 °F /  16.2 °C 57.2 °F /  14 °C 29.8in /  1010.2hPa Calm     87% 0in /  0.0mm 0 W/m2
05:36 61.3 °F /  16.3 °C 57.4 °F /  14.1 °C 29.8in /  1010.2hPa Calm     87% 0in /  0.0mm 0 W/m2
05:41 61.3 °F /  16.3 °C 57.4 °F /  14.1 °C 29.8in /  1010.2hPa Calm     87% 0in /  0.0mm 0 W/m2
05:46 61.3 °F /  16.3 °C 57.4 °F /  14.1 °C 29.8in /  1010.2hPa Calm     87% 0in /  0.0mm 0 W/m2
05:51 61.3 °F /  16.3 °C 57.4 °F /  14.1 °C 29.8in /  1010.2hPa Calm     87% 0in /  0.0mm 0 W/m2
05:56 61.5 °F /  16.4 °C 57.6 °F /  14.2 °C 29.8in /  1010.2hPa Calm     87% 0in /  0.0mm 0 W/m2
06:01 61.7 °F /  16.5 °C 58.1 °F /  14.5 °C 29.8in /  1010.2hPa Calm   1mph /  1.6km/h 88% 0in /  0.0mm 0 W/m2
06:06 61.7 °F /  16.5 °C 58.5 °F /  14.7 °C 29.8in /  1010.2hPa Calm     89% 0.01in /  0.2mm 0 W/m2
06:11 61.5 °F /  16.4 °C 58.3 °F /  14.6 °C 29.8in /  1010.2hPa Calm   1mph /  1.6km/h 89% 0.01in /  0.2mm 0 W/m2
06:16 61.5 °F /  16.4 °C 58.6 °F /  14.8 °C 29.8in /  1009.8hPa Calm     90% 0.01in /  0.2mm 0 W/m2
06:21 61.3 °F /  16.3 °C 58.6 °F /  14.8 °C 29.8in /  1009.8hPa Calm   1mph /  1.6km/h 91% 0.01in /  0.2mm 0 W/m2
06:26 61.2 °F /  16.2 °C 58.5 °F /  14.7 °C 29.8in /  1009.8hPa Calm   1mph /  1.6km/h 91% 0.01in /  0.2mm 0 W/m2
06:31 61.2 °F /  16.2 °C 58.8 °F /  14.9 °C 29.8in /  1010.2hPa Calm   1mph /  1.6km/h 92% 0.01in /  0.2mm 0 W/m2
06:36 61 °F /  16.1 °C 58.6 °F /  14.8 °C 29.8in /  1010.2hPa Calm     92% 0.01in /  0.2mm 0 W/m2
06:41 60.6 °F /  15.9 °C 58.3 °F /  14.6 °C 29.8in /  1010.2hPa Calm     92% 0.01in /  0.2mm 0 W/m2
06:46 60.4 °F /  15.8 °C 58.1 °F /  14.5 °C 29.8in /  1009.8hPa Calm     92% 0.01in /  0.2mm 0 W/m2
06:51 60.4 °F /  15.8 °C 58.1 °F /  14.5 °C 29.8in /  1010.2hPa Calm     92% 0.01in /  0.2mm 0 W/m2
06:56 60.3 °F /  15.7 °C 57.9 °F /  14.4 °C 29.8in /  1010.2hPa Calm     92% 0.01in /  0.2mm 0 W/m2
07:01 60.1 °F /  15.6 °C 58.1 °F /  14.5 °C 29.8in /  1010.2hPa Calm     93% 0.01in /  0.2mm 0 W/m2
07:06 60.1 °F /  15.6 °C 58.1 °F /  14.5 °C 29.8in /  1010.2hPa Calm     93% 0in /  0.0mm 0 W/m2
07:11 59.7 °F /  15.4 °C 57.7 °F /  14.3 °C 29.8in /  1010.2hPa Calm     93% 0in /  0.0mm 5 W/m2
07:16 59.5 °F /  15.3 °C 57.6 °F /  14.2 °C 29.8in /  1010.2hPa Calm     93% 0in /  0.0mm 7 W/m2
07:21 59.5 °F /  15.3 °C 57.6 °F /  14.2 °C 29.8in /  1010.2hPa Calm     93% 0in /  0.0mm 9 W/m2
07:26 59.5 °F /  15.3 °C 57.6 °F /  14.2 °C 29.8in /  1010.2hPa Calm     93% 0in /  0.0mm 12 W/m2
07:31 59.5 °F /  15.3 °C 57.7 °F /  14.3 °C 29.8in /  1010.2hPa Calm     94% 0in /  0.0mm 19 W/m2
07:36 59.5 °F /  15.3 °C 57.7 °F /  14.3 °C 29.8in /  1010.2hPa Calm     94% 0in /  0.0mm 30 W/m2
07:41 59.5 °F /  15.3 °C 57.7 °F /  14.3 °C 29.8in /  1010.2hPa Calm     94% 0in /  0.0mm 42 W/m2
07:46 59.5 °F /  15.3 °C 57.7 °F /  14.3 °C 29.8in /  1010.2hPa Calm   1mph /  1.6km/h 94% 0in /  0.0mm 47 W/m2
07:51 59.5 °F /  15.3 °C 57.7 °F /  14.3 °C 29.8in /  1010.2hPa Calm     94% 0in /  0.0mm 46 W/m2
07:56 59.7 °F /  15.4 °C 57.9 °F /  14.4 °C 29.8in /  1010.2hPa SW 0.9mph /  1.4km/h 2mph /  3.2km/h 94% 0in /  0.0mm 54 W/m2
08:01 60.1 °F /  15.6 °C 58.3 °F /  14.6 °C 29.8in /  1010.5hPa NNW 0.9mph /  1.4km/h 5mph /  8km/h 94% 0.01in /  0.2mm 65 W/m2
08:06 60.3 °F /  15.7 °C 58.5 °F /  14.7 °C 29.8in /  1010.5hPa West 2mph /  3.2km/h 3mph /  4.8km/h 94% 0.01in /  0.2mm 77 W/m2
08:11 60.4 °F /  15.8 °C 58.6 °F /  14.8 °C 29.8in /  1010.5hPa Calm   5mph /  8km/h 94% 0.01in /  0.2mm 81 W/m2
08:16 61 °F /  16.1 °C 59.2 °F /  15.1 °C 29.8in /  1010.5hPa North 0.9mph /  1.4km/h 1mph /  1.6km/h 94% 0.01in /  0.2mm 83 W/m2
08:21 61.2 °F /  16.2 °C 59.4 °F /  15.2 °C 29.8in /  1010.5hPa Calm   2mph /  3.2km/h 94% 0.01in /  0.2mm 105 W/m2
08:26 61.3 °F /  16.3 °C 59.5 °F /  15.3 °C 29.8in /  1010.5hPa Calm     94% 0.01in /  0.2mm 95 W/m2
08:31 61.9 °F /  16.6 °C 60.1 °F /  15.6 °C 29.8in /  1010.5hPa NW 0.9mph /  1.4km/h 2mph /  3.2km/h 94% 0.01in /  0.2mm 107 W/m2
08:36 62.2 °F /  16.8 °C 60.3 °F /  15.7 °C 29.8in /  1010.5hPa SW 0.9mph /  1.4km/h 2mph /  3.2km/h 93% 0.01in /  0.2mm 125 W/m2
08:41 63 °F /  17.2 °C 61 °F /  16.1 °C 29.8in /  1010.5hPa NW 2mph /  3.2km/h 3mph /  4.8km/h 93% 0.01in /  0.2mm 195 W/m2
08:46 63.9 °F /  17.7 °C 61.5 °F /  16.4 °C 29.8in /  1010.5hPa NW 2.9mph /  4.7km/h 3mph /  4.8km/h 92% 0.01in /  0.2mm 102 W/m2
08:51 64.2 °F /  17.9 °C 61.2 °F /  16.2 °C 29.8in /  1010.5hPa Calm   2mph /  3.2km/h 90% 0.01in /  0.2mm 83 W/m2
08:57 64.6 °F /  18.1 °C 61.3 °F /  16.3 °C 29.8in /  1010.5hPa Calm   1mph /  1.6km/h 89% 0.01in /  0.2mm 81 W/m2
09:02 64.8 °F /  18.2 °C 61.5 °F /  16.4 °C 29.8in /  1010.5hPa Calm   2mph /  3.2km/h 89% 0in /  0.0mm 93 W/m2
09:07 64.9 °F /  18.3 °C 61.7 °F /  16.5 °C 29.9in /  1010.8hPa ESE 2mph /  3.2km/h 2mph /  3.2km/h 89% 0in /  0.0mm 77 W/m2
09:12 64.9 °F /  18.3 °C 61.3 °F /  16.3 °C 29.9in /  1010.8hPa ESE 2mph /  3.2km/h 3mph /  4.8km/h 88% 0in /  0.0mm 62 W/m2
09:17 65.1 °F /  18.4 °C 61.9 °F /  16.6 °C 29.9in /  1010.8hPa ESE 2mph /  3.2km/h 3mph /  4.8km/h 89% 0in /  0.0mm 44 W/m2
09:22 65.1 °F /  18.4 °C 61.9 °F /  16.6 °C 29.9in /  1011.2hPa North 0.9mph /  1.4km/h 2mph /  3.2km/h 89% 0in /  0.0mm 44 W/m2
09:27 65.1 °F /  18.4 °C 61.5 °F /  16.4 °C 29.9in /  1011.2hPa NW 2.9mph /  4.7km/h 4mph /  6.4km/h 88% 0in /  0.0mm 58 W/m2
09:32 65.5 °F /  18.6 °C 61.5 °F /  16.4 °C 29.9in /  1011.2hPa Calm   7mph /  11.3km/h 87% 0in /  0.0mm 62 W/m2
09:37 65.5 °F /  18.6 °C 61.5 °F /  16.4 °C 29.9in /  1011.2hPa Calm   2mph /  3.2km/h 87% 0in /  0.0mm 54 W/m2
09:42 65.7 °F /  18.7 °C 61.7 °F /  16.5 °C 29.9in /  1011.5hPa ENE 0.9mph /  1.4km/h 2mph /  3.2km/h 87% 0in /  0.0mm 42 W/m2
09:47 65.8 °F /  18.8 °C 61.9 °F /  16.6 °C 29.9in /  1011.5hPa North 0.9mph /  1.4km/h 1mph /  1.6km/h 87% 0in /  0.0mm 26 W/m2
09:52 66 °F /  18.9 °C 62.1 °F /  16.7 °C 29.9in /  1011.9hPa Calm   2mph /  3.2km/h 87% 0in /  0.0mm 25 W/m2
09:57 66 °F /  18.9 °C 62.1 °F /  16.7 °C 29.9in /  1011.9hPa Calm   2mph /  3.2km/h 87% 0in /  0.0mm 28 W/m2
10:02 66 °F /  18.9 °C 62.4 °F /  16.9 °C 29.9in /  1011.5hPa Calm   2mph /  3.2km/h 88% 0in /  0.0mm 33 W/m2
10:07 66 °F /  18.9 °C 62.4 °F /  16.9 °C 29.9in /  1011.5hPa Calm     88% 0in /  0.0mm 30 W/m2
10:12 66 °F /  18.9 °C 62.6 °F /  17 °C 29.9in /  1011.9hPa Calm     89% 0in /  0.0mm 42 W/m2
10:17 66 °F /  18.9 °C 62.6 °F /  17 °C 29.9in /  1011.9hPa NE 0.9mph /  1.4km/h 1mph /  1.6km/h 89% 0in /  0.0mm 56 W/m2
10:22 66 °F /  18.9 °C 62.6 °F /  17 °C 29.9in /  1011.5hPa Calm     89% 0in /  0.0mm 83 W/m2
10:27 66.4 °F /  19.1 °C 63 °F /  17.2 °C 29.9in /  1011.5hPa North 2mph /  3.2km/h 2mph /  3.2km/h 89% 0in /  0.0mm 63 W/m2
10:32 66.6 °F /  19.2 °C 63.1 °F /  17.3 °C 29.9in /  1011.5hPa NW 2mph /  3.2km/h 3mph /  4.8km/h 89% 0in /  0.0mm 42 W/m2
10:37 66.7 °F /  19.3 °C 63.3 °F /  17.4 °C 29.9in /  1011.9hPa NW 2mph /  3.2km/h 4mph /  6.4km/h 89% 0.02in /  0.5mm 35 W/m2
10:42 66.6 °F /  19.2 °C 63.5 °F /  17.5 °C 29.9in /  1011.5hPa WNW 0.9mph /  1.4km/h 2mph /  3.2km/h 90% 0.07in /  1.8mm 35 W/m2
10:47 66.4 °F /  19.1 °C 63.7 °F /  17.6 °C 29.9in /  1011.2hPa Calm   1mph /  1.6km/h 91% 0.08in /  2.0mm 26 W/m2
10:52 66.4 °F /  19.1 °C 63.7 °F /  17.6 °C 29.9in /  1011.2hPa Calm   1mph /  1.6km/h 91% 0.08in /  2.0mm 26 W/m2
10:57 66 °F /  18.9 °C 63.7 °F /  17.6 °C 29.9in /  1011.2hPa West 0.9mph /  1.4km/h 3mph /  4.8km/h 92% 0.09in /  2.3mm 25 W/m2
11:02 66 °F /  18.9 °C 63.7 °F /  17.6 °C 29.9in /  1010.8hPa Calm     92% 0.09in /  2.3mm 25 W/m2
11:07 65.8 °F /  18.8 °C 63.7 °F /  17.6 °C 29.9in /  1011.2hPa NW 2mph /  3.2km/h 3mph /  4.8km/h 93% 0.09in /  2.3mm 26 W/m2
11:12 65.8 °F /  18.8 °C 63.7 °F /  17.6 °C 29.9in /  1011.2hPa West 2.9mph /  4.7km/h 3mph /  4.8km/h 93% 0.09in /  2.3mm 28 W/m2
11:17 65.7 °F /  18.7 °C 63.5 °F /  17.5 °C 29.9in /  1011.2hPa West 2mph /  3.2km/h 4mph /  6.4km/h 93% 0.09in /  2.3mm 33 W/m2
11:22 65.5 °F /  18.6 °C 63.7 °F /  17.6 °C 29.9in /  1011.5hPa West 2.9mph /  4.7km/h 4mph /  6.4km/h 94% 0.1in /  2.5mm 39 W/m2
11:27 65.3 °F /  18.5 °C 63.5 °F /  17.5 °C 29.9in /  1011.5hPa West 2.9mph /  4.7km/h 3mph /  4.8km/h 94% 0.11in /  2.8mm 47 W/m2
11:32 65.3 °F /  18.5 °C 63.5 °F /  17.5 °C 29.9in /  1011.5hPa NW 0.9mph /  1.4km/h 3mph /  4.8km/h 94% 0.12in /  3.0mm 56 W/m2
11:37 65.5 °F /  18.6 °C 63.7 °F /  17.6 °C 29.9in /  1011.9hPa Calm   1mph /  1.6km/h 94% 0.09in /  2.3mm 63 W/m2
11:42 65.5 °F /  18.6 °C 63.7 °F /  17.6 °C 29.9in /  1011.9hPa WNW 0.9mph /  1.4km/h 1mph /  1.6km/h 94% 0.06in /  1.5mm 70 W/m2
11:47 65.7 °F /  18.7 °C 63.9 °F /  17.7 °C 29.9in /  1011.9hPa Calm   1mph /  1.6km/h 94% 0.05in /  1.3mm 77 W/m2
11:52 65.8 °F /  18.8 °C 64 °F /  17.8 °C 29.9in /  1011.9hPa Calm     94% 0.06in /  1.5mm 86 W/m2
11:57 65.8 °F /  18.8 °C 64 °F /  17.8 °C 29.9in /  1011.9hPa NE 2mph /  3.2km/h 2mph /  3.2km/h 94% 0.05in /  1.3mm 97 W/m2
12:02 66 °F /  18.9 °C 64.2 °F /  17.9 °C 29.9in /  1011.9hPa Calm   2mph /  3.2km/h 94% 0.06in /  1.5mm 111 W/m2
12:07 66 °F /  18.9 °C 64.2 °F /  17.9 °C 29.9in /  1011.9hPa Calm     94% 0.06in /  1.5mm 120 W/m2
12:12 66 °F /  18.9 °C 64.2 °F /  17.9 °C 29.9in /  1011.9hPa Calm   2mph /  3.2km/h 94% 0.06in /  1.5mm 128 W/m2
12:17 66 °F /  18.9 °C 64.6 °F /  18.1 °C 29.9in /  1011.9hPa Calm     95% 0.06in /  1.5mm 142 W/m2
12:22 66.2 °F /  19 °C 64.4 °F /  18 °C 29.9in /  1011.9hPa Calm   1mph /  1.6km/h 94% 0.06in /  1.5mm 158 W/m2
12:27 66.6 °F /  19.2 °C 64.8 °F /  18.2 °C 29.9in /  1011.9hPa East 0.9mph /  1.4km/h 3mph /  4.8km/h 94% 0.06in /  1.5mm 178 W/m2
12:32 66.6 °F /  19.2 °C 64.8 °F /  18.2 °C 29.9in /  1011.9hPa Calm   2mph /  3.2km/h 94% 0.05in /  1.3mm 218 W/m2
12:37 66.7 °F /  19.3 °C 65.3 °F /  18.5 °C 29.9in /  1011.9hPa Calm   3mph /  4.8km/h 95% 0.06in /  1.5mm 299 W/m2
12:42 67.3 °F /  19.6 °C 65.8 °F /  18.8 °C 29.9in /  1011.9hPa ENE 0.9mph /  1.4km/h 3mph /  4.8km/h 95% 0.05in /  1.3mm 371 W/m2
12:47 67.6 °F /  19.8 °C 66.2 °F /  19 °C 29.9in /  1011.9hPa Calm   2mph /  3.2km/h 95% 0.05in /  1.3mm 258 W/m2
12:52 67.8 °F /  19.9 °C 66 °F /  18.9 °C 29.9in /  1011.9hPa Calm   2mph /  3.2km/h 94% 0.04in /  1.0mm 325 W/m2
12:57 68 °F /  20 °C 66.2 °F /  19 °C 29.9in /  1011.9hPa ENE 0.9mph /  1.4km/h 2mph /  3.2km/h 94% 0.04in /  1.0mm 795 W/m2
13:02 68.5 °F /  20.3 °C 66.7 °F /  19.3 °C 29.9in /  1011.9hPa ESE 2mph /  3.2km/h 3mph /  4.8km/h 94% 0.02in /  0.5mm 487 W/m2
13:07 69.1 °F /  20.6 °C 66.9 °F /  19.4 °C 29.9in /  1011.9hPa NE 2mph /  3.2km/h 3mph /  4.8km/h 93% 0.02in /  0.5mm 246 W/m2
13:12 69.1 °F /  20.6 °C 66.7 °F /  19.3 °C 29.9in /  1011.9hPa Calm   2mph /  3.2km/h 92% 0.02in /  0.5mm 276 W/m2
13:17 69.4 °F /  20.8 °C 67.3 °F /  19.6 °C 29.9in /  1011.9hPa East 2.9mph /  4.7km/h 3mph /  4.8km/h 93% 0.02in /  0.5mm 403 W/m2
13:22 69.6 °F /  20.9 °C 67.5 °F /  19.7 °C 29.9in /  1011.9hPa ESE 0.9mph /  1.4km/h 1mph /  1.6km/h 93% 0.01in /  0.2mm 404 W/m2
13:27 70.2 °F /  21.2 °C 67.6 °F /  19.8 °C 29.9in /  1011.9hPa ENE 0.9mph /  1.4km/h 2mph /  3.2km/h 92% 0.01in /  0.2mm 290 W/m2
13:32 70.3 °F /  21.3 °C 67.8 °F /  19.9 °C 29.9in /  1011.9hPa Calm   3mph /  4.8km/h 92% 0.01in /  0.2mm 404 W/m2
13:37 70.7 °F /  21.5 °C 68.2 °F /  20.1 °C 29.9in /  1011.9hPa ENE 2mph /  3.2km/h 3mph /  4.8km/h 92% 0in /  0.0mm 385 W/m2
13:42 70.7 °F /  21.5 °C 67.6 °F /  19.8 °C 29.9in /  1011.9hPa SE 2mph /  3.2km/h 4mph /  6.4km/h 90% 0in /  0.0mm 283 W/m2
13:47 70.9 °F /  21.6 °C 68.2 °F /  20.1 °C 29.9in /  1011.9hPa East 2.9mph /  4.7km/h 3mph /  4.8km/h 91% 0in /  0.0mm 230 W/m2
13:52 71.1 °F /  21.7 °C 68.4 °F /  20.2 °C 29.9in /  1011.9hPa Calm   1mph /  1.6km/h 91% 0in /  0.0mm 373 W/m2
13:57 71.2 °F /  21.8 °C 68.5 °F /  20.3 °C 29.9in /  1011.9hPa ESE 0.9mph /  1.4km/h 2mph /  3.2km/h 91% 0in /  0.0mm 392 W/m2
14:02 71.6 °F /  22 °C 68.5 °F /  20.3 °C 29.9in /  1011.9hPa SE 0.9mph /  1.4km/h 2mph /  3.2km/h 90% 0in /  0.0mm 279 W/m2
14:07 72 °F /  22.2 °C 68.9 °F /  20.5 °C 29.9in /  1011.5hPa East 2mph /  3.2km/h 4mph /  6.4km/h 90% 0in /  0.0mm 155 W/m2
14:12 72 °F /  22.2 °C 68.9 °F /  20.5 °C 29.9in /  1011.9hPa East 0.9mph /  1.4km/h 2mph /  3.2km/h 90% 0in /  0.0mm 146 W/m2
14:17 72.1 °F /  22.3 °C 69.1 °F /  20.6 °C 29.9in /  1011.5hPa NW 0.9mph /  1.4km/h 4mph /  6.4km/h 90% 0in /  0.0mm 232 W/m2
14:22 72.1 °F /  22.3 °C 69.1 °F /  20.6 °C 29.9in /  1011.9hPa Calm   1mph /  1.6km/h 90% 0in /  0.0mm 294 W/m2
14:28 72.3 °F /  22.4 °C 69.3 °F /  20.7 °C 29.9in /  1011.5hPa Calm   3mph /  4.8km/h 90% 0in /  0.0mm 204 W/m2
14:33 72.7 °F /  22.6 °C 69.6 °F /  20.9 °C 29.9in /  1011.9hPa Calm   1mph /  1.6km/h 90% 0in /  0.0mm 225 W/m2
14:38 72.9 °F /  22.7 °C 68.4 °F /  20.2 °C 29.9in /  1011.9hPa ENE 2mph /  3.2km/h 2mph /  3.2km/h 86% 0in /  0.0mm 216 W/m2
14:43 73.2 °F /  22.9 °C 69.1 °F /  20.6 °C 29.9in /  1011.5hPa NNW 0.9mph /  1.4km/h 3mph /  4.8km/h 87% 0in /  0.0mm 408 W/m2
14:48 73.4 °F /  23 °C 68.5 °F /  20.3 °C 29.9in /  1011.5hPa Calm   4mph /  6.4km/h 85% 0in /  0.0mm 248 W/m2
14:53 73.6 °F /  23.1 °C 68.2 °F /  20.1 °C 29.9in /  1011.5hPa Calm   2mph /  3.2km/h 83% 0in /  0.0mm 613 W/m2
14:58 74.1 °F /  23.4 °C 68.9 °F /  20.5 °C 29.9in /  1011.5hPa NNE 0.9mph /  1.4km/h 4mph /  6.4km/h 84% 0in /  0.0mm 874 W/m2
15:03 74.8 °F /  23.8 °C 68.9 °F /  20.5 °C 29.9in /  1011.2hPa NW 2mph /  3.2km/h 5mph /  8km/h 82% 0in /  0.0mm 524 W/m2
15:08 75.4 °F /  24.1 °C 68.7 °F /  20.4 °C 29.9in /  1011.2hPa Calm   2mph /  3.2km/h 80% 0in /  0.0mm 392 W/m2
15:13 75.4 °F /  24.1 °C 69.1 °F /  20.6 °C 29.9in /  1011.2hPa Calm   2mph /  3.2km/h 81% 0in /  0.0mm 390 W/m2
15:18 75.4 °F /  24.1 °C 68.7 °F /  20.4 °C 29.9in /  1011.2hPa WSW 0.9mph /  1.4km/h 4mph /  6.4km/h 80% 0in /  0.0mm 369 W/m2
15:23 75 °F /  23.9 °C 68.4 °F /  20.2 °C 29.9in /  1011.2hPa NW 2mph /  3.2km/h 3mph /  4.8km/h 80% 0in /  0.0mm 281 W/m2
15:28 74.8 °F /  23.8 °C 67.8 °F /  19.9 °C 29.9in /  1011.2hPa Calm   3mph /  4.8km/h 79% 0in /  0.0mm 364 W/m2
15:33 75 °F /  23.9 °C 69.1 °F /  20.6 °C 29.9in /  1010.8hPa Calm   2mph /  3.2km/h 82% 0in /  0.0mm 325 W/m2
15:38 75.2 °F /  24 °C 69.3 °F /  20.7 °C 29.9in /  1010.8hPa NE 2mph /  3.2km/h 2mph /  3.2km/h 82% 0in /  0.0mm 313 W/m2
15:43 75.4 °F /  24.1 °C 69.4 °F /  20.8 °C 29.9in /  1010.8hPa NNW 0.9mph /  1.4km/h 2mph /  3.2km/h 82% 0in /  0.0mm 269 W/m2
15:48 75.7 °F /  24.3 °C 69.1 °F /  20.6 °C 29.9in /  1010.8hPa Calm   1mph /  1.6km/h 80% 0in /  0.0mm 353 W/m2
15:53 76.3 °F /  24.6 °C 70.7 °F /  21.5 °C 29.9in /  1010.8hPa NE 0.9mph /  1.4km/h 1mph /  1.6km/h 83% 0in /  0.0mm 334 W/m2
15:58 76.1 °F /  24.5 °C 69.1 °F /  20.6 °C 29.9in /  1010.8hPa East 2.9mph /  4.7km/h 4mph /  6.4km/h 79% 0in /  0.0mm 334 W/m2
16:03 75.7 °F /  24.3 °C 68.4 °F /  20.2 °C 29.9in /  1010.8hPa WNW 2.9mph /  4.7km/h 7mph /  11.3km/h 78% 0in /  0.0mm 258 W/m2
16:08 75.4 °F /  24.1 °C 68 °F /  20 °C 29.9in /  1010.8hPa West 0.9mph /  1.4km/h 5mph /  8km/h 78% 0in /  0.0mm 160 W/m2
16:13 75 °F /  23.9 °C 68 °F /  20 °C 29.9in /  1010.8hPa NW 0.9mph /  1.4km/h 2mph /  3.2km/h 79% 0in /  0.0mm 109 W/m2
16:18 74.8 °F /  23.8 °C 68.2 °F /  20.1 °C 29.9in /  1010.8hPa NE 0.9mph /  1.4km/h 2mph /  3.2km/h 80% 0in /  0.0mm 113 W/m2
16:23 74.7 °F /  23.7 °C 68 °F /  20 °C 29.9in /  1010.8hPa WNW 0.9mph /  1.4km/h 3mph /  4.8km/h 80% 0in /  0.0mm 149 W/m2
16:28 74.7 °F /  23.7 °C 68.7 °F /  20.4 °C 29.9in /  1010.8hPa Calm   1mph /  1.6km/h 82% 0in /  0.0mm 206 W/m2
16:33 74.5 °F /  23.6 °C 68.5 °F /  20.3 °C 29.9in /  1010.8hPa Calm   2mph /  3.2km/h 82% 0in /  0.0mm 213 W/m2
16:38 74.7 °F /  23.7 °C 68.4 °F /  20.2 °C 29.9in /  1010.8hPa Calm   2mph /  3.2km/h 81% 0in /  0.0mm 204 W/m2
16:43 74.7 °F /  23.7 °C 68.4 °F /  20.2 °C 29.9in /  1010.8hPa ENE 0.9mph /  1.4km/h 2mph /  3.2km/h 81% 0in /  0.0mm 192 W/m2
16:48 74.8 °F /  23.8 °C 67.8 °F /  19.9 °C 29.9in /  1010.8hPa WNW 2.9mph /  4.7km/h 4mph /  6.4km/h 79% 0in /  0.0mm 190 W/m2
16:53 74.8 °F /  23.8 °C 67.8 °F /  19.9 °C 29.9in /  1010.8hPa ENE 0.9mph /  1.4km/h 1mph /  1.6km/h 79% 0in /  0.0mm 183 W/m2
16:58 74.8 °F /  23.8 °C 67.5 °F /  19.7 °C 29.9in /  1010.8hPa Calm   4mph /  6.4km/h 78% 0in /  0.0mm 183 W/m2
17:03 75 °F /  23.9 °C 68.7 °F /  20.4 °C 29.9in /  1010.8hPa NW 4mph /  6.4km/h 4mph /  6.4km/h 81% 0in /  0.0mm 257 W/m2
17:08 75 °F /  23.9 °C 67.3 °F /  19.6 °C 29.9in /  1010.8hPa East 2mph /  3.2km/h 2mph /  3.2km/h 77% 0in /  0.0mm 536 W/m2
17:13 75.7 °F /  24.3 °C 67.6 °F /  19.8 °C 29.9in /  1010.8hPa East 2mph /  3.2km/h 3mph /  4.8km/h 76% 0in /  0.0mm 287 W/m2
17:18 76.3 °F /  24.6 °C 67.5 °F /  19.7 °C 29.9in /  1010.8hPa NE 0.9mph /  1.4km/h 3mph /  4.8km/h 74% 0in /  0.0mm 204 W/m2
17:23 76.3 °F /  24.6 °C 67.8 °F /  19.9 °C 29.9in /  1010.8hPa West 2mph /  3.2km/h 5mph /  8km/h 75% 0in /  0.0mm 153 W/m2
17:28 75.9 °F /  24.4 °C 67.1 °F /  19.5 °C 29.9in /  1010.8hPa WNW 0.9mph /  1.4km/h 3mph /  4.8km/h 74% 0in /  0.0mm 141 W/m2
17:33 75.6 °F /  24.2 °C 67.1 °F /  19.5 °C 29.9in /  1010.8hPa Calm   5mph /  8km/h 75% 0in /  0.0mm 304 W/m2
17:38 75.6 °F /  24.2 °C 67.1 °F /  19.5 °C 29.9in /  1010.8hPa ENE 2mph /  3.2km/h 3mph /  4.8km/h 75% 0in /  0.0mm 448 W/m2
17:43 75.9 °F /  24.4 °C 67.5 °F /  19.7 °C 29.9in /  1010.8hPa WNW 2mph /  3.2km/h 4mph /  6.4km/h 75% 0in /  0.0mm 401 W/m2
17:48 76.1 °F /  24.5 °C 67.6 °F /  19.8 °C 29.9in /  1010.8hPa WNW 2mph /  3.2km/h 2mph /  3.2km/h 75% 0in /  0.0mm 262 W/m2
17:53 75.9 °F /  24.4 °C 67.1 °F /  19.5 °C 29.9in /  1010.8hPa Calm   2mph /  3.2km/h 74% 0in /  0.0mm 172 W/m2
17:58 75.7 °F /  24.3 °C 67.3 °F /  19.6 °C 29.9in /  1010.8hPa West 2mph /  3.2km/h 6mph /  9.7km/h 75% 0in /  0.0mm 167 W/m2
18:03 75.6 °F /  24.2 °C 67.5 °F /  19.7 °C 29.9in /  1010.8hPa West 2mph /  3.2km/h 2mph /  3.2km/h 76% 0in /  0.0mm 297 W/m2
18:08 75.7 °F /  24.3 °C 68.4 °F /  20.2 °C 29.9in /  1010.8hPa WSW 0.9mph /  1.4km/h 5mph /  8km/h 78% 0in /  0.0mm 227 W/m2
18:13 75.9 °F /  24.4 °C 67.8 °F /  19.9 °C 29.9in /  1010.8hPa SW 4mph /  6.4km/h 4mph /  6.4km/h 76% 0in /  0.0mm 329 W/m2
18:18 76.3 °F /  24.6 °C 65.8 °F /  18.8 °C 29.9in /  1010.8hPa West 2.9mph /  4.7km/h 7mph /  11.3km/h 70% 0in /  0.0mm 299 W/m2
18:23 76.3 °F /  24.6 °C 64.6 °F /  18.1 °C 29.9in /  1010.8hPa WNW 2.9mph /  4.7km/h 8mph /  12.9km/h 67% 0in /  0.0mm 213 W/m2
18:28 75.7 °F /  24.3 °C 64.8 °F /  18.2 °C 29.9in /  1010.8hPa WSW 2.9mph /  4.7km/h 4mph /  6.4km/h 69% 0in /  0.0mm 77 W/m2
18:33 75 °F /  23.9 °C 64.9 °F /  18.3 °C 29.9in /  1011.2hPa West 2mph /  3.2km/h 5mph /  8km/h 71% 0in /  0.0mm 47 W/m2
18:38 74.3 °F /  23.5 °C 64.2 °F /  17.9 °C 29.9in /  1011.2hPa WNW 2.9mph /  4.7km/h 7mph /  11.3km/h 71% 0in /  0.0mm 32 W/m2
18:43 73.8 °F /  23.2 °C 64.6 °F /  18.1 °C 29.9in /  1011.2hPa WSW 2mph /  3.2km/h 8mph /  12.9km/h 73% 0in /  0.0mm 23 W/m2
18:48 73 °F /  22.8 °C 64.2 °F /  17.9 °C 29.9in /  1011.2hPa WNW 2mph /  3.2km/h 5mph /  8km/h 74% 0in /  0.0mm 21 W/m2
18:53 72.7 °F /  22.6 °C 64.2 °F /  17.9 °C 29.9in /  1011.2hPa West 0.9mph /  1.4km/h 8mph /  12.9km/h 75% 0in /  0.0mm 21 W/m2
18:58 72.1 °F /  22.3 °C 64.6 °F /  18.1 °C 29.9in /  1011.2hPa WNW 0.9mph /  1.4km/h 2mph /  3.2km/h 77% 0in /  0.0mm 18 W/m2
19:03 71.6 °F /  22 °C 64 °F /  17.8 °C 29.9in /  1011.2hPa WNW 2mph /  3.2km/h 5mph /  8km/h 77% 0in /  0.0mm 14 W/m2
19:08 71.4 °F /  21.9 °C 63.9 °F /  17.7 °C 29.9in /  1011.2hPa NW 0.9mph /  1.4km/h 5mph /  8km/h 77% 0in /  0.0mm 7 W/m2
19:13 71.2 °F /  21.8 °C 63.7 °F /  17.6 °C 29.9in /  1011.2hPa WNW 2mph /  3.2km/h 5mph /  8km/h 77% 0in /  0.0mm 5 W/m2
19:18 71.2 °F /  21.8 °C 63.7 °F /  17.6 °C 29.9in /  1011.2hPa West 2mph /  3.2km/h 7mph /  11.3km/h 77% 0in /  0.0mm 7 W/m2
19:23 71.1 °F /  21.7 °C 63.5 °F /  17.5 °C 29.9in /  1011.2hPa WNW 2mph /  3.2km/h 4mph /  6.4km/h 77% 0in /  0.0mm 7 W/m2
19:28 70.9 °F /  21.6 °C 63.7 °F /  17.6 °C 29.9in /  1011.2hPa Calm   6mph /  9.7km/h 78% 0in /  0.0mm 5 W/m2
19:33 70.7 °F /  21.5 °C 63.9 °F /  17.7 °C 29.9in /  1011.2hPa Calm   2mph /  3.2km/h 79% 0in /  0.0mm 5 W/m2
19:38 70.3 °F /  21.3 °C 63.5 °F /  17.5 °C 29.9in /  1011.2hPa NW 0.9mph /  1.4km/h 3mph /  4.8km/h 79% 0in /  0.0mm 0 W/m2
19:43 70.3 °F /  21.3 °C 63.9 °F /  17.7 °C 29.9in /  1011.2hPa Calm   3mph /  4.8km/h 80% 0in /  0.0mm 0 W/m2
19:48 70.3 °F /  21.3 °C 63.9 °F /  17.7 °C 29.9in /  1011.2hPa Calm     80% 0in /  0.0mm 0 W/m2
19:53 70.2 °F /  21.2 °C 64 °F /  17.8 °C 29.9in /  1011.2hPa Calm     81% 0in /  0.0mm 0 W/m2
19:58 69.8 °F /  21 °C 64 °F /  17.8 °C 29.9in /  1011.2hPa Calm   1mph /  1.6km/h 82% 0in /  0.0mm 0 W/m2
20:03 69.4 °F /  20.8 °C 64 °F /  17.8 °C 29.9in /  1011.2hPa Calm     83% 0in /  0.0mm 0 W/m2
20:09 69.3 °F /  20.7 °C 63.9 °F /  17.7 °C 29.9in /  1011.2hPa Calm     83% 0in /  0.0mm 0 W/m2
20:14 69.1 °F /  20.6 °C 63.7 °F /  17.6 °C 29.9in /  1011.2hPa Calm     83% 0in /  0.0mm 0 W/m2
20:19 69.1 °F /  20.6 °C 64 °F /  17.8 °C 29.9in /  1011.2hPa Calm   1mph /  1.6km/h 84% 0in /  0.0mm 0 W/m2
20:24 69.1 °F /  20.6 °C 64 °F /  17.8 °C 29.9in /  1011.5hPa Calm   1mph /  1.6km/h 84% 0in /  0.0mm 0 W/m2
20:29 68.7 °F /  20.4 °C 64 °F /  17.8 °C 29.9in /  1011.5hPa Calm   1mph /  1.6km/h 85% 0in /  0.0mm 0 W/m2
20:34 68.7 °F /  20.4 °C 64.4 °F /  18 °C 29.9in /  1011.5hPa Calm     86% 0in /  0.0mm 0 W/m2
20:39 68.5 °F /  20.3 °C 64.2 °F /  17.9 °C 29.9in /  1011.5hPa Calm   2mph /  3.2km/h 86% 0in /  0.0mm 0 W/m2
20:44 68.5 °F /  20.3 °C 64.2 °F /  17.9 °C 29.9in /  1011.5hPa Calm     86% 0in /  0.0mm 0 W/m2
20:49 68.4 °F /  20.2 °C 64.4 °F /  18 °C 29.9in /  1011.5hPa Calm   2mph /  3.2km/h 87% 0in /  0.0mm 0 W/m2
20:54 68.4 °F /  20.2 °C 64.4 °F /  18 °C 29.9in /  1011.9hPa Calm   1mph /  1.6km/h 87% 0in /  0.0mm 0 W/m2
20:59 68.4 °F /  20.2 °C 64.4 °F /  18 °C 29.9in /  1011.9hPa Calm   2mph /  3.2km/h 87% 0in /  0.0mm 0 W/m2
21:04 68.2 °F /  20.1 °C 64.2 °F /  17.9 °C 29.9in /  1011.9hPa Calm     87% 0in /  0.0mm 0 W/m2
21:09 68.2 °F /  20.1 °C 64.2 °F /  17.9 °C 29.9in /  1011.9hPa Calm   2mph /  3.2km/h 87% 0in /  0.0mm 0 W/m2
21:14 68.2 °F /  20.1 °C 64.2 °F /  17.9 °C 29.9in /  1011.9hPa Calm   1mph /  1.6km/h 87% 0in /  0.0mm 0 W/m2
21:19 68.2 °F /  20.1 °C 64.2 °F /  17.9 °C 29.9in /  1011.9hPa Calm     87% 0in /  0.0mm 0 W/m2
21:24 67.8 °F /  19.9 °C 63.9 °F /  17.7 °C 29.9in /  1011.9hPa Calm     87% 0in /  0.0mm 0 W/m2
21:29 67.8 °F /  19.9 °C 63.5 °F /  17.5 °C 29.9in /  1011.9hPa Calm     86% 0in /  0.0mm 0 W/m2
21:34 67.6 °F /  19.8 °C 63.3 °F /  17.4 °C 29.9in /  1011.9hPa Calm   1mph /  1.6km/h 86% 0in /  0.0mm 0 W/m2
21:39 67.5 °F /  19.7 °C 63.5 °F /  17.5 °C 29.9in /  1011.9hPa Calm     87% 0in /  0.0mm 0 W/m2
21:44 67.3 °F /  19.6 °C 63.7 °F /  17.6 °C 29.9in /  1011.9hPa Calm   1mph /  1.6km/h 88% 0in /  0.0mm 0 W/m2
21:49 66.9 °F /  19.4 °C 63.3 °F /  17.4 °C 29.9in /  1012.2hPa Calm     88% 0in /  0.0mm 0 W/m2
21:54 66.7 °F /  19.3 °C 63.1 °F /  17.3 °C 29.9in /  1012.2hPa Calm   1mph /  1.6km/h 88% 0in /  0.0mm 0 W/m2
21:59 66.6 °F /  19.2 °C 63.1 °F /  17.3 °C 29.9in /  1012.2hPa Calm     89% 0in /  0.0mm 0 W/m2
22:04 66.4 °F /  19.1 °C 63 °F /  17.2 °C 29.9in /  1012.2hPa Calm     89% 0in /  0.0mm 0 W/m2
22:09 66 °F /  18.9 °C 62.6 °F /  17 °C 29.9in /  1012.2hPa Calm   1mph /  1.6km/h 89% 0in /  0.0mm 0 W/m2
22:14 65.8 °F /  18.8 °C 62.4 °F /  16.9 °C 29.9in /  1012.2hPa NW 0.9mph /  1.4km/h 1mph /  1.6km/h 89% 0in /  0.0mm 0 W/m2
22:19 65.7 °F /  18.7 °C 62.6 °F /  17 °C 29.9in /  1012.2hPa Calm     90% 0in /  0.0mm 0 W/m2
22:24 65.5 °F /  18.6 °C 62.4 °F /  16.9 °C 29.9in /  1012.2hPa Calm     90% 0in /  0.0mm 0 W/m2
22:29 65.5 °F /  18.6 °C 62.4 °F /  16.9 °C 29.9in /  1012.2hPa Calm   2mph /  3.2km/h 90% 0in /  0.0mm 0 W/m2
22:34 65.3 °F /  18.5 °C 62.6 °F /  17 °C 29.9in /  1012.2hPa Calm     91% 0in /  0.0mm 0 W/m2
22:39 65.1 °F /  18.4 °C 62.4 °F /  16.9 °C 29.9in /  1012.2hPa Calm     91% 0in /  0.0mm 0 W/m2
22:44 65.1 °F /  18.4 °C 62.4 °F /  16.9 °C 29.9in /  1012.2hPa Calm     91% 0in /  0.0mm 0 W/m2
22:49 64.9 °F /  18.3 °C 62.6 °F /  17 °C 29.9in /  1012.2hPa Calm     92% 0in /  0.0mm 0 W/m2
22:54 64.9 °F /  18.3 °C 62.6 °F /  17 °C 29.9in /  1012.5hPa Calm     92% 0in /  0.0mm 0 W/m2
22:59 64.9 °F /  18.3 °C 62.6 °F /  17 °C 29.9in /  1012.5hPa Calm     92% 0in /  0.0mm 0 W/m2
23:04 64.8 °F /  18.2 °C 62.4 °F /  16.9 °C 29.9in /  1012.5hPa Calm     92% 0in /  0.0mm 0 W/m2
23:09 64.8 °F /  18.2 °C 62.4 °F /  16.9 °C 29.9in /  1012.5hPa Calm     92% 0in /  0.0mm 0 W/m2
23:14 64.8 °F /  18.2 °C 62.4 °F /  16.9 °C 29.9in /  1012.5hPa Calm     92% 0in /  0.0mm 0 W/m2
23:19 64.8 °F /  18.2 °C 62.6 °F /  17 °C 29.9in /  1012.5hPa Calm     93% 0in /  0.0mm 0 W/m2
23:24 64.6 °F /  18.1 °C 62.4 °F /  16.9 °C 29.9in /  1012.5hPa Calm   1mph /  1.6km/h 93% 0in /  0.0mm 0 W/m2
23:29 64.6 °F /  18.1 °C 62.4 °F /  16.9 °C 29.9in /  1012.5hPa Calm     93% 0in /  0.0mm 0 W/m2
23:34 64.6 °F /  18.1 °C 62.4 °F /  16.9 °C 29.9in /  1012.5hPa Calm   1mph /  1.6km/h 93% 0in /  0.0mm 0 W/m2
23:39 64.6 °F /  18.1 °C 62.4 °F /  16.9 °C 29.9in /  1012.5hPa Calm     93% 0in /  0.0mm 0 W/m2
23:44 64.4 °F /  18 °C 62.4 °F /  16.9 °C 29.9in /  1012.5hPa Calm     93% 0in /  0.0mm 0 W/m2
23:49 64.4 °F /  18 °C 62.4 °F /  16.9 °C 29.9in /  1012.5hPa Calm     93% 0in /  0.0mm 0 W/m2
23:54 64.2 °F /  17.9 °C 62.2 °F /  16.8 °C 29.9in /  1012.5hPa Calm     93% 0in /  0.0mm 0 W/m2
23:59 64.2 °F /  17.9 °C 62.2 °F /  16.8 °C 29.9in /  1012.5hPa Calm     93% 0in /  0.0mm 0 W/m2
Juneau County Weather
Compliments of Weather Underground - 4 mb